createdAt,value
2023-11-24T00:02:08.694Z,12.10
2023-11-24T00:04:35.945Z,12.10
2023-11-24T00:07:04.747Z,12.20
2023-11-24T00:09:31.946Z,12.10
2023-11-24T00:12:01.711Z,12.20
2023-11-24T00:14:31.656Z,12.30
2023-11-24T00:16:59.009Z,12.40
2023-11-24T00:19:26.324Z,12.50
2023-11-24T00:21:53.165Z,12.40
2023-11-24T00:24:20.029Z,12.50
2023-11-24T00:26:46.874Z,12.50
2023-11-24T00:29:14.783Z,12.20
2023-11-24T00:31:41.785Z,12.10
2023-11-24T00:34:09.517Z,11.90
2023-11-24T00:36:36.781Z,11.80
2023-11-24T00:39:05.371Z,11.70
2023-11-24T00:41:33.518Z,11.70
2023-11-24T00:44:03.466Z,11.70
2023-11-24T00:46:30.657Z,11.70
2023-11-24T00:48:58.408Z,11.70
2023-11-24T00:51:26.332Z,11.70
2023-11-24T00:53:53.959Z,11.70
2023-11-24T00:56:20.894Z,11.80
2023-11-24T00:58:47.933Z,11.80
2023-11-24T01:01:15.183Z,11.90
2023-11-24T01:03:42.499Z,11.80
2023-11-24T01:06:10.241Z,11.80
2023-11-24T01:08:37.309Z,11.90
2023-11-24T01:11:04.167Z,11.80
2023-11-24T01:13:34.158Z,11.80
2023-11-24T01:16:01.368Z,11.80
2023-11-24T01:18:29.102Z,11.70
2023-11-24T01:20:56.200Z,11.80
2023-11-24T01:23:23.304Z,11.90
2023-11-24T01:25:50.228Z,11.90
2023-11-24T01:28:17.114Z,12.00
2023-11-24T01:30:44.577Z,11.90
2023-11-24T01:33:11.894Z,11.90
2023-11-24T01:35:38.941Z,11.80
2023-11-24T01:38:05.786Z,11.80
2023-11-24T01:40:35.430Z,11.70
2023-11-24T01:43:02.382Z,11.70
2023-11-24T01:45:29.819Z,11.70
2023-11-24T01:47:57.953Z,11.80
2023-11-24T01:50:25.402Z,11.80
2023-11-24T01:52:52.907Z,11.70
2023-11-24T01:55:20.487Z,11.60
2023-11-24T01:57:48.641Z,11.50
2023-11-24T02:00:17.252Z,11.50
2023-11-24T02:02:45.854Z,11.50
2023-11-24T02:05:17.676Z,11.40
2023-11-24T02:07:45.209Z,11.30
2023-11-24T02:10:13.180Z,11.20
2023-11-24T02:12:40.218Z,11.30
2023-11-24T02:15:10.651Z,11.40
2023-11-24T02:17:37.981Z,11.30
2023-11-24T02:20:08.285Z,11.30
2023-11-24T02:22:43.014Z,11.30
2023-11-24T02:25:12.320Z,11.30
2023-11-24T02:27:39.480Z,11.20
2023-11-24T02:30:06.990Z,11.10
2023-11-24T02:32:35.223Z,11.00
2023-11-24T02:35:02.593Z,11.00
2023-11-24T02:37:29.559Z,11.00
2023-11-24T02:39:58.202Z,10.90
2023-11-24T02:42:25.824Z,10.90
2023-11-24T02:44:54.091Z,10.90
2023-11-24T02:47:22.172Z,10.90
2023-11-24T02:49:49.136Z,10.80
2023-11-24T02:52:16.096Z,10.70
2023-11-24T02:54:43.381Z,10.70
2023-11-24T02:57:11.418Z,10.60
2023-11-24T02:59:38.344Z,10.70
2023-11-24T03:02:05.337Z,10.70
2023-11-24T03:04:34.162Z,10.70
2023-11-24T03:07:02.343Z,10.70
2023-11-24T03:09:29.296Z,10.70
2023-11-24T03:11:56.269Z,10.70
2023-11-24T03:14:24.166Z,10.70
2023-11-24T03:16:51.238Z,10.70
2023-11-24T03:19:18.190Z,10.70
2023-11-24T03:21:47.377Z,10.70
2023-11-24T03:24:14.313Z,10.50
2023-11-24T03:26:42.660Z,10.50
2023-11-24T03:29:12.669Z,10.60
2023-11-24T03:31:43.098Z,10.60
2023-11-24T03:34:12.153Z,10.40
2023-11-24T03:36:39.283Z,10.40
2023-11-24T03:39:07.375Z,10.40
2023-11-24T03:41:36.608Z,10.40
2023-11-24T03:44:04.725Z,10.40
2023-11-24T03:46:32.847Z,10.50
2023-11-24T03:49:01.961Z,10.40
2023-11-24T03:51:29.833Z,10.30
2023-11-24T03:53:56.837Z,10.40
2023-11-24T03:56:27.674Z,10.40
2023-11-24T03:58:54.682Z,10.50
2023-11-24T04:01:22.887Z,10.50
2023-11-24T04:03:50.046Z,10.60
2023-11-24T04:06:16.864Z,10.60
2023-11-24T04:08:44.012Z,10.50
2023-11-24T04:11:12.423Z,10.50
2023-11-24T04:13:39.422Z,10.50
2023-11-24T04:16:07.963Z,10.40
2023-11-24T04:18:34.910Z,10.40
2023-11-24T04:21:01.796Z,10.40
2023-11-24T04:23:28.690Z,10.30
2023-11-24T04:25:57.482Z,10.30
2023-11-24T04:28:24.505Z,10.30
2023-11-24T04:30:54.146Z,10.30
2023-11-24T04:33:22.283Z,10.20
2023-11-24T04:35:56.306Z,10.20
2023-11-24T04:38:24.173Z,10.20
2023-11-24T04:40:51.053Z,10.20
2023-11-24T04:43:18.218Z,10.20
2023-11-24T04:45:45.167Z,10.30
2023-11-24T04:48:13.666Z,10.30
2023-11-24T04:50:40.685Z,10.30
2023-11-24T04:53:07.939Z,10.10
2023-11-24T04:55:34.802Z,10.10
2023-11-24T04:58:03.329Z,10.10
2023-11-24T05:00:32.644Z,10.20
2023-11-24T05:02:59.576Z,10.30
2023-11-24T05:05:26.844Z,10.30
2023-11-24T05:07:53.822Z,10.00
2023-11-24T05:10:20.724Z,9.80
2023-11-24T05:12:49.660Z,9.90
2023-11-24T05:15:16.608Z,9.70
2023-11-24T05:17:43.635Z,9.60
2023-11-24T05:20:15.831Z,9.50
2023-11-24T05:22:42.691Z,9.50
2023-11-24T05:25:09.804Z,9.60
2023-11-24T05:27:36.669Z,9.60
2023-11-24T05:30:08.449Z,9.50
2023-11-24T05:32:36.374Z,9.50
2023-11-24T05:35:03.885Z,9.50
2023-11-24T05:37:31.006Z,9.60
2023-11-24T05:39:57.985Z,9.60
2023-11-24T05:42:24.857Z,9.50
2023-11-24T05:44:51.727Z,9.40
2023-11-24T05:47:18.513Z,9.40
2023-11-24T05:49:45.557Z,9.30
2023-11-24T05:52:16.688Z,9.20
2023-11-24T05:54:44.951Z,9.20
2023-11-24T05:57:17.964Z,9.10
2023-11-24T05:59:44.747Z,9.10
2023-11-24T06:02:15.162Z,9.20
2023-11-24T06:04:43.480Z,9.20
2023-11-24T06:07:10.609Z,9.10
2023-11-24T06:09:37.641Z,9.10
2023-11-24T06:12:04.714Z,8.90
2023-11-24T06:14:31.551Z,9.00
2023-11-24T06:16:58.414Z,9.00
2023-11-24T06:19:25.748Z,8.90
2023-11-24T06:21:53.629Z,8.90
2023-11-24T06:24:22.617Z,8.90
2023-11-24T06:26:49.615Z,9.00
2023-11-24T06:29:18.812Z,8.90
2023-11-24T06:31:46.015Z,9.00
2023-11-24T06:34:12.975Z,8.90
2023-11-24T06:36:40.981Z,9.00
2023-11-24T06:39:11.352Z,8.90
2023-11-24T06:41:38.502Z,8.90
2023-11-24T06:44:05.743Z,8.90
2023-11-24T06:46:32.657Z,9.00
2023-11-24T06:49:00.927Z,9.00
2023-11-24T06:51:27.786Z,9.00
2023-11-24T06:53:55.314Z,8.90
2023-11-24T06:56:23.796Z,8.90
2023-11-24T06:58:55.356Z,8.70
2023-11-24T07:01:34.777Z,8.60
2023-11-24T07:04:02.699Z,8.70
2023-11-24T07:06:31.315Z,8.60
2023-11-24T07:09:01.427Z,8.60
2023-11-24T07:11:28.394Z,8.70
2023-11-24T07:13:55.835Z,8.80
2023-11-24T07:16:24.909Z,8.80
2023-11-24T07:18:54.253Z,8.80
2023-11-24T07:21:22.536Z,8.70
2023-11-24T07:23:49.800Z,8.70
2023-11-24T07:26:17.206Z,8.80
2023-11-24T07:28:45.653Z,8.90
2023-11-24T07:31:16.053Z,8.90
2023-11-24T07:33:44.410Z,8.80
2023-11-24T07:36:11.345Z,8.90
2023-11-24T07:38:38.270Z,8.90
2023-11-24T07:41:10.461Z,8.90
2023-11-24T07:43:37.606Z,8.90
2023-11-24T07:46:08.573Z,8.90
2023-11-24T07:48:35.725Z,8.90
2023-11-24T07:51:07.024Z,9.00
2023-11-24T07:53:37.438Z,9.00
2023-11-24T07:56:06.344Z,9.00
2023-11-24T07:58:33.361Z,9.00
2023-11-24T08:01:01.710Z,9.00
2023-11-24T08:03:29.645Z,9.00
2023-11-24T08:05:57.018Z,9.00
2023-11-24T08:08:23.902Z,9.10
2023-11-24T08:10:50.780Z,9.00
2023-11-24T08:13:20.478Z,9.00
2023-11-24T08:15:47.585Z,9.10
2023-11-24T08:18:14.554Z,9.20
2023-11-24T08:20:42.250Z,9.20
2023-11-24T08:23:11.938Z,9.20
2023-11-24T08:25:38.821Z,9.30
2023-11-24T08:28:05.984Z,9.40
2023-11-24T08:30:35.991Z,9.40
2023-11-24T08:33:05.431Z,9.40
2023-11-24T08:35:35.070Z,9.50
2023-11-24T08:38:07.711Z,9.60
2023-11-24T08:40:34.770Z,9.70
2023-11-24T08:43:04.667Z,9.60
2023-11-24T08:45:31.478Z,9.60
2023-11-24T08:47:58.782Z,9.60
2023-11-24T08:50:25.844Z,9.60
2023-11-24T08:52:53.488Z,9.50
2023-11-24T08:55:21.500Z,9.30
2023-11-24T08:57:48.535Z,9.30
2023-11-24T09:00:15.832Z,9.10
2023-11-24T09:02:43.015Z,9.00
2023-11-24T09:05:12.548Z,9.00
2023-11-24T09:07:39.464Z,8.80
2023-11-24T09:10:06.936Z,8.70
2023-11-24T09:12:34.835Z,8.60
2023-11-24T09:15:06.016Z,8.30
2023-11-24T09:17:35.326Z,8.40
2023-11-24T09:20:02.441Z,8.10
2023-11-24T09:22:29.569Z,8.10
2023-11-24T09:24:57.125Z,8.20
2023-11-24T09:27:26.110Z,8.10
2023-11-24T09:29:54.448Z,8.00
2023-11-24T09:32:22.407Z,8.00
2023-11-24T09:34:52.024Z,8.00
2023-11-24T09:37:19.043Z,7.90
2023-11-24T09:39:48.446Z,7.90
2023-11-24T09:42:19.927Z,7.80
2023-11-24T09:44:50.171Z,7.80
2023-11-24T09:47:20.091Z,7.90
2023-11-24T09:49:48.140Z,7.80
2023-11-24T09:52:16.947Z,7.70
2023-11-24T09:54:44.101Z,7.60
2023-11-24T09:57:11.029Z,7.50
2023-11-24T09:59:38.980Z,7.40
2023-11-24T10:02:15.008Z,7.30
2023-11-24T10:04:44.827Z,7.40
2023-11-24T10:07:19.041Z,7.40
2023-11-24T10:09:48.746Z,7.40
2023-11-24T10:12:20.870Z,7.30
2023-11-24T10:14:48.376Z,7.30
2023-11-24T10:17:24.504Z,7.20
2023-11-24T10:19:53.156Z,7.20
2023-11-24T10:22:25.010Z,7.20
2023-11-24T10:24:52.546Z,7.10
2023-11-24T10:27:23.596Z,7.10
2023-11-24T10:29:53.563Z,7.10
2023-11-24T10:32:21.118Z,7.20
2023-11-24T10:34:48.093Z,7.20
2023-11-24T10:37:21.973Z,7.30
2023-11-24T10:39:50.226Z,7.20
2023-11-24T10:42:20.375Z,7.00
2023-11-24T10:44:52.807Z,7.00
2023-11-24T10:47:29.774Z,7.00
2023-11-24T10:50:17.416Z,7.10
2023-11-24T10:52:48.725Z,7.10
2023-11-24T10:55:16.500Z,7.10
2023-11-24T10:57:44.376Z,7.00
2023-11-24T11:00:15.573Z,7.00
2023-11-24T11:02:43.399Z,6.80
2023-11-24T11:05:24.715Z,6.80
2023-11-24T11:08:14.976Z,6.90
2023-11-24T11:10:47.254Z,7.00
2023-11-24T11:13:15.315Z,7.10
2023-11-24T11:15:43.054Z,7.00
2023-11-24T11:18:16.844Z,7.00
2023-11-24T11:20:45.670Z,7.10
2023-11-24T11:23:19.961Z,7.10
2023-11-24T11:25:55.156Z,7.10
2023-11-24T11:28:25.032Z,7.20
2023-11-24T11:30:52.703Z,7.20
2023-11-24T11:33:23.450Z,7.30
2023-11-24T11:35:58.907Z,7.30
2023-11-24T11:38:47.462Z,7.40
2023-11-24T11:41:34.236Z,7.30
2023-11-24T11:44:16.994Z,7.20
2023-11-24T11:47:02.644Z,7.10
2023-11-24T11:49:35.909Z,6.90
2023-11-24T11:52:04.873Z,6.80
2023-11-24T11:54:33.486Z,6.70
2023-11-24T11:57:01.738Z,6.70
2023-11-24T11:59:28.721Z,6.70
2023-11-24T12:01:55.737Z,6.60
2023-11-24T12:04:22.919Z,6.60
2023-11-24T12:06:52.671Z,6.60
2023-11-24T12:09:20.950Z,6.70
2023-11-24T12:11:48.742Z,6.70
2023-11-24T12:14:15.760Z,6.70
2023-11-24T12:16:43.886Z,6.70
2023-11-24T12:19:11.345Z,6.70
2023-11-24T12:21:43.327Z,6.80
2023-11-24T12:24:15.328Z,6.80
2023-11-24T12:26:46.154Z,6.90
2023-11-24T12:29:14.531Z,7.00
2023-11-24T12:31:43.506Z,7.20
2023-11-24T12:34:21.504Z,7.30
2023-11-24T12:36:50.126Z,7.40
2023-11-24T12:39:18.454Z,7.40
2023-11-24T12:41:45.585Z,7.40
2023-11-24T12:44:14.602Z,7.50
2023-11-24T12:46:45.245Z,7.40
2023-11-24T12:49:13.201Z,7.30
2023-11-24T12:51:44.551Z,7.40
2023-11-24T12:54:11.832Z,7.50
2023-11-24T12:56:39.344Z,7.60
2023-11-24T12:59:11.957Z,7.40
2023-11-24T13:01:39.083Z,7.40
2023-11-24T13:04:13.017Z,7.50
2023-11-24T13:06:40.485Z,7.50
2023-11-24T13:09:10.758Z,7.40
2023-11-24T13:11:38.128Z,7.30
2023-11-24T13:14:07.047Z,7.30
2023-11-24T13:16:37.419Z,7.20
2023-11-24T13:19:08.431Z,7.30
2023-11-24T13:21:35.663Z,7.30
2023-11-24T13:24:03.851Z,7.50
2023-11-24T13:26:31.413Z,7.60
2023-11-24T13:28:59.599Z,7.70
2023-11-24T13:31:29.965Z,7.80
2023-11-24T13:34:02.447Z,8.00
2023-11-24T13:36:29.384Z,8.10
2023-11-24T13:38:56.614Z,8.00
2023-11-24T13:41:23.579Z,8.10
2023-11-24T13:43:52.861Z,8.30
2023-11-24T13:46:21.883Z,8.30
2023-11-24T13:48:48.789Z,8.40
2023-11-24T13:51:15.761Z,8.40
2023-11-24T13:53:42.653Z,8.30
2023-11-24T13:56:09.733Z,8.40
2023-11-24T13:58:36.885Z,8.30
2023-11-24T14:01:05.497Z,8.20
2023-11-24T14:03:33.847Z,8.10
2023-11-24T14:06:00.813Z,8.00
2023-11-24T14:08:28.736Z,8.20
2023-11-24T14:10:55.524Z,8.20
2023-11-24T14:13:22.533Z,8.40
2023-11-24T14:15:51.053Z,8.60
2023-11-24T14:18:20.334Z,8.50
2023-11-24T14:20:49.214Z,8.30
2023-11-24T14:23:17.626Z,8.20
2023-11-24T14:25:44.564Z,8.20
2023-11-24T14:28:11.424Z,8.10
2023-11-24T14:30:39.728Z,8.10
2023-11-24T14:33:11.976Z,8.10
2023-11-24T14:35:41.317Z,8.10
2023-11-24T14:38:09.182Z,8.10
2023-11-24T14:40:38.151Z,8.10
2023-11-24T14:43:05.013Z,8.00
2023-11-24T14:45:37.485Z,8.00
2023-11-24T14:48:07.025Z,7.90
2023-11-24T14:50:35.182Z,7.90
2023-11-24T14:53:02.366Z,7.90
2023-11-24T14:55:32.077Z,8.00
2023-11-24T14:58:00.905Z,8.00
2023-11-24T15:00:31.745Z,7.80
2023-11-24T15:03:03.173Z,7.70
2023-11-24T15:05:31.557Z,7.30
2023-11-24T15:07:59.564Z,7.00
2023-11-24T15:10:27.812Z,6.80
2023-11-24T15:12:59.283Z,6.80
2023-11-24T15:15:27.751Z,6.80
2023-11-24T15:17:58.526Z,6.90
2023-11-24T15:20:33.324Z,6.90
2023-11-24T15:23:00.204Z,6.90
2023-11-24T15:25:28.736Z,6.90
2023-11-24T15:28:03.149Z,6.80
2023-11-24T15:30:30.969Z,6.80
2023-11-24T15:32:57.912Z,6.80
2023-11-24T15:35:26.376Z,6.80
2023-11-24T15:37:54.488Z,6.80
2023-11-24T15:40:22.229Z,6.70
2023-11-24T15:42:53.597Z,6.70
2023-11-24T15:45:20.854Z,6.70
2023-11-24T15:48:02.774Z,6.70
2023-11-24T15:50:34.110Z,6.80
2023-11-24T15:53:04.389Z,6.90
2023-11-24T15:55:34.052Z,6.90
2023-11-24T15:58:03.922Z,6.70
2023-11-24T16:00:34.650Z,6.60
2023-11-24T16:03:02.745Z,6.60
2023-11-24T16:05:33.643Z,6.50
2023-11-24T16:08:08.913Z,6.30
2023-11-24T16:10:44.595Z,6.20
2023-11-24T16:13:14.677Z,6.10
2023-11-24T16:15:42.169Z,5.90
2023-11-24T16:18:10.564Z,5.80
2023-11-24T16:20:38.153Z,5.80
2023-11-24T16:23:06.919Z,5.70
2023-11-24T16:25:34.309Z,5.70
2023-11-24T16:28:03.816Z,5.80
2023-11-24T16:30:30.817Z,5.90
2023-11-24T16:32:59.259Z,5.90
2023-11-24T16:35:26.123Z,6.10
2023-11-24T16:37:55.961Z,6.20
2023-11-24T16:40:24.575Z,6.30
2023-11-24T16:42:52.494Z,6.40
2023-11-24T16:45:19.802Z,6.40
2023-11-24T16:47:48.708Z,6.40
2023-11-24T16:50:15.666Z,6.40
2023-11-24T16:52:47.293Z,6.40
2023-11-24T16:55:15.585Z,6.40
2023-11-24T16:57:45.564Z,6.50
2023-11-24T17:00:16.060Z,6.60
2023-11-24T17:02:44.349Z,6.60
2023-11-24T17:05:12.656Z,6.50
2023-11-24T17:07:42.561Z,6.20
2023-11-24T17:10:13.183Z,6.10
2023-11-24T17:12:46.436Z,6.00
2023-11-24T17:15:19.995Z,5.90
2023-11-24T17:17:55.244Z,5.80
2023-11-24T17:20:24.938Z,5.80
2023-11-24T17:22:54.649Z,5.90
2023-11-24T17:25:36.750Z,6.00
2023-11-24T17:28:07.689Z,6.10
2023-11-24T17:30:35.164Z,6.10
2023-11-24T17:33:04.065Z,6.00
2023-11-24T17:35:34.282Z,6.10
2023-11-24T17:38:09.471Z,6.10
2023-11-24T17:40:39.653Z,6.10
2023-11-24T17:43:12.447Z,6.10
2023-11-24T17:48:23.957Z,6.20
2023-11-24T17:50:59.597Z,6.20
2023-11-24T17:53:31.911Z,6.20
2023-11-24T17:55:59.688Z,6.30
2023-11-24T17:58:27.244Z,6.40
2023-11-24T18:00:54.498Z,6.30
2023-11-24T18:03:24.016Z,6.30
2023-11-24T18:05:51.188Z,6.10
2023-11-24T18:08:23.719Z,6.10
2023-11-24T18:10:51.044Z,6.00
2023-11-24T18:13:19.117Z,5.80
2023-11-24T18:15:48.250Z,5.80
2023-11-24T18:18:15.437Z,5.80
2023-11-24T18:20:44.337Z,5.90
2023-11-24T18:23:11.155Z,6.00
2023-11-24T18:25:39.987Z,6.00
2023-11-24T18:28:09.341Z,6.10
2023-11-24T18:30:38.745Z,6.20
2023-11-24T18:33:05.966Z,6.10
2023-11-24T18:35:36.508Z,6.20
2023-11-24T18:38:11.336Z,6.30
2023-11-24T18:40:42.548Z,6.30
2023-11-24T18:43:11.840Z,6.30
2023-11-24T18:45:38.774Z,6.40
2023-11-24T18:48:05.898Z,6.50
2023-11-24T18:50:32.815Z,6.60
2023-11-24T18:52:59.779Z,6.70
2023-11-24T18:55:26.829Z,6.70
2023-11-24T18:57:55.567Z,6.70
2023-11-24T19:00:23.631Z,6.70
2023-11-24T19:02:51.049Z,6.70
2023-11-24T19:05:19.329Z,6.70
2023-11-24T19:07:50.181Z,6.70
2023-11-24T19:10:19.544Z,6.70
2023-11-24T19:12:49.790Z,6.80
2023-11-24T19:15:16.936Z,6.80
2023-11-24T19:17:43.905Z,6.80
2023-11-24T19:20:12.035Z,6.80
2023-11-24T19:22:39.023Z,6.80
2023-11-24T19:25:06.806Z,6.70
2023-11-24T19:27:34.912Z,6.70
2023-11-24T19:30:08.019Z,6.60
2023-11-24T19:32:36.349Z,6.70
2023-11-24T19:35:07.358Z,6.70
2023-11-24T19:37:37.845Z,6.60
2023-11-24T19:40:07.563Z,6.60
2023-11-24T19:42:34.982Z,6.70
2023-11-24T19:45:04.036Z,6.80
2023-11-24T19:47:33.080Z,6.80
2023-11-24T19:49:59.995Z,6.90
2023-11-24T19:52:31.714Z,6.90
2023-11-24T19:54:58.743Z,6.90
2023-11-24T19:57:27.346Z,6.70
2023-11-24T19:59:56.574Z,6.70
2023-11-24T20:02:23.882Z,6.80
2023-11-24T20:04:51.388Z,6.80
2023-11-24T20:07:22.193Z,7.00
2023-11-24T20:09:50.487Z,7.00
2023-11-24T20:12:17.370Z,7.10
2023-11-24T20:14:45.264Z,7.00
2023-11-24T20:17:13.019Z,7.10
2023-11-24T20:19:39.919Z,7.00
2023-11-24T20:22:09.838Z,6.90
2023-11-24T20:24:36.829Z,6.90
2023-11-24T20:27:08.262Z,6.90
2023-11-24T20:29:37.301Z,6.90
2023-11-24T20:32:05.074Z,6.90
2023-11-24T20:34:33.351Z,6.90
2023-11-24T20:37:00.746Z,7.10
2023-11-24T20:39:27.666Z,7.10
2023-11-24T20:41:55.951Z,7.10
2023-11-24T20:44:23.917Z,7.20
2023-11-24T20:46:51.763Z,7.30
2023-11-24T20:49:20.958Z,7.30
2023-11-24T20:51:48.905Z,7.30
2023-11-24T20:54:17.816Z,7.30
2023-11-24T20:56:45.835Z,7.40
2023-11-24T20:59:15.561Z,7.40
2023-11-24T21:01:42.794Z,7.50
2023-11-24T21:04:10.378Z,7.50
2023-11-24T21:06:40.527Z,7.60
2023-11-24T21:09:11.438Z,7.60
2023-11-24T21:11:38.492Z,7.60
2023-11-24T21:14:05.984Z,7.60
2023-11-24T21:16:33.092Z,7.60
2023-11-24T21:18:59.974Z,7.60
2023-11-24T21:21:27.859Z,7.40
2023-11-24T21:23:56.870Z,7.40
2023-11-24T21:26:24.351Z,7.30
2023-11-24T21:28:52.396Z,7.40
2023-11-24T21:31:20.315Z,7.40
2023-11-24T21:33:48.431Z,7.50
2023-11-24T21:36:16.933Z,7.40
2023-11-24T21:38:44.279Z,7.40
2023-11-24T21:41:13.009Z,7.50
2023-11-24T21:43:43.299Z,7.60
2023-11-24T21:46:19.613Z,7.60
2023-11-24T21:48:47.532Z,7.70
2023-11-24T21:51:14.730Z,7.70
2023-11-24T21:53:42.601Z,7.60
2023-11-24T21:56:10.108Z,7.60
2023-11-24T21:58:37.527Z,7.70
2023-11-24T22:01:06.052Z,7.70
2023-11-24T22:03:33.590Z,7.70
2023-11-24T22:06:01.576Z,7.70
2023-11-24T22:08:28.531Z,7.60
2023-11-24T22:10:55.456Z,7.70
2023-11-24T22:13:22.409Z,7.60
2023-11-24T22:15:50.332Z,7.70
2023-11-24T22:18:20.116Z,7.70
2023-11-24T22:20:49.108Z,7.80
2023-11-24T22:23:17.972Z,7.80
2023-11-24T22:25:45.081Z,7.80
2023-11-24T22:28:12.107Z,7.80
2023-11-24T22:30:39.173Z,7.70
2023-11-24T22:33:06.053Z,7.80
2023-11-24T22:35:34.158Z,7.70
2023-11-24T22:38:01.141Z,7.70
2023-11-24T22:40:27.981Z,7.80
2023-11-24T22:42:55.786Z,7.80
2023-11-24T22:45:22.593Z,7.80
2023-11-24T22:47:49.453Z,7.70
2023-11-24T22:50:17.804Z,7.60
2023-11-24T22:52:45.916Z,7.60
2023-11-24T22:55:12.759Z,7.60
2023-11-24T22:57:40.902Z,7.60
2023-11-24T23:00:16.283Z,7.60
2023-11-24T23:02:43.292Z,7.60
2023-11-24T23:05:10.760Z,7.50
2023-11-24T23:07:38.599Z,7.50
2023-11-24T23:10:05.925Z,7.40
2023-11-24T23:12:32.783Z,7.40
2023-11-24T23:15:01.430Z,7.40
2023-11-24T23:17:28.206Z,7.40
2023-11-24T23:19:55.994Z,7.30
2023-11-24T23:22:31.231Z,7.40
2023-11-24T23:25:07.939Z,7.30
2023-11-24T23:27:36.219Z,7.30
2023-11-24T23:30:03.419Z,7.30
2023-11-24T23:32:30.875Z,7.30
2023-11-24T23:34:57.782Z,7.40
2023-11-24T23:37:24.729Z,7.40
2023-11-24T23:39:51.574Z,7.40
2023-11-24T23:42:18.445Z,7.20
2023-11-24T23:44:45.229Z,7.20
2023-11-24T23:47:12.853Z,7.20
2023-11-24T23:49:40.754Z,7.30
2023-11-24T23:52:07.636Z,7.30
2023-11-24T23:54:34.395Z,7.20
2023-11-24T23:57:01.222Z,7.10
2023-11-24T23:59:28.020Z,7.10
